createdAt,value
2019-02-11T00:01:30.844Z,98823.69
2019-02-11T00:04:00.230Z,98818.11
2019-02-11T00:06:29.588Z,98825.88
2019-02-11T00:08:59.233Z,98829.45
2019-02-11T00:11:28.600Z,98826.88
2019-02-11T00:13:57.962Z,98834.53
2019-02-11T00:16:27.331Z,98842.27
2019-02-11T00:21:26.364Z,98847.78
2019-02-11T00:23:55.733Z,98852.56
2019-02-11T00:26:25.124Z,98850.19
2019-02-11T00:28:54.489Z,98864.23
2019-02-11T00:31:23.931Z,98866.13
2019-02-11T00:33:53.580Z,98863.55
2019-02-11T00:36:22.984Z,98873.20
2019-02-11T00:38:52.351Z,98885.23
2019-02-11T00:41:21.728Z,98880.61
2019-02-11T00:43:51.097Z,98892.83
2019-02-11T00:46:20.496Z,98901.31
2019-02-11T00:48:49.847Z,98901.41
2019-02-11T00:51:19.483Z,98904.57
2019-02-11T00:53:48.874Z,98910.18
2019-02-11T00:56:18.242Z,98920.63
2019-02-11T00:58:47.619Z,98921.55
2019-02-11T01:01:17.031Z,98923.92
2019-02-11T01:03:46.402Z,98930.68
2019-02-11T01:06:15.775Z,98930.36
2019-02-11T01:08:45.149Z,98955.02
2019-02-11T01:11:14.520Z,98995.98
2019-02-11T01:13:44.152Z,99019.45
2019-02-11T01:16:13.543Z,99002.20
2019-02-11T01:18:42.918Z,99010.08
2019-02-11T01:21:12.564Z,99012.95
2019-02-11T01:23:41.920Z,99002.84
2019-02-11T01:26:11.291Z,99019.84
2019-02-11T01:28:41.439Z,99016.47
2019-02-11T01:31:10.829Z,99026.70
2019-02-11T01:33:40.210Z,99020.85
2019-02-11T01:36:09.576Z,99043.82
2019-02-11T01:38:38.974Z,99048.61
2019-02-11T01:41:08.497Z,99053.80
2019-02-11T01:43:37.924Z,99061.58
2019-02-11T01:46:07.312Z,99075.78
2019-02-11T01:48:36.701Z,99073.38
2019-02-11T01:51:06.346Z,99073.38
2019-02-11T01:53:36.009Z,99077.27
2019-02-11T01:56:05.387Z,99073.18
2019-02-11T01:58:34.866Z,99092.11
2019-02-11T02:01:05.238Z,99087.19
2019-02-11T02:03:34.614Z,99073.89
2019-02-11T02:06:04.005Z,99086.28
2019-02-11T02:08:33.371Z,99101.59
2019-02-11T02:11:02.791Z,99099.45
2019-02-11T02:13:32.213Z,99099.06
2019-02-11T02:16:01.877Z,99099.19
2019-02-11T02:18:31.255Z,99106.11
2019-02-11T02:21:00.908Z,99109.14
2019-02-11T02:23:30.287Z,99115.47
2019-02-11T02:25:59.680Z,99119.25
2019-02-11T02:28:29.068Z,99129.95
2019-02-11T02:30:58.776Z,99140.33
2019-02-11T02:33:28.168Z,99141.19
2019-02-11T02:36:00.553Z,99139.27
2019-02-11T02:38:29.940Z,99147.25
2019-02-11T02:40:59.330Z,99157.08
2019-02-11T02:43:30.604Z,99156.41
2019-02-11T02:46:00.006Z,99157.52
2019-02-11T02:48:29.387Z,99166.88
2019-02-11T02:50:58.815Z,99166.36
2019-02-11T02:53:28.233Z,99183.23
2019-02-11T02:55:57.838Z,99180.72
2019-02-11T02:58:27.584Z,99190.59
2019-02-11T03:00:57.223Z,99192.71
2019-02-11T03:03:26.612Z,99195.66
2019-02-11T03:05:55.996Z,99200.66
2019-02-11T03:08:25.398Z,99196.17
2019-02-11T03:10:54.790Z,99204.16
2019-02-11T03:13:24.478Z,99207.58
2019-02-11T03:15:53.846Z,99216.72
2019-02-11T03:18:23.483Z,99216.47
2019-02-11T03:20:52.902Z,99216.00
2019-02-11T03:23:22.273Z,99219.38
2019-02-11T03:25:51.648Z,99221.52
2019-02-11T03:28:21.039Z,99224.39
2019-02-11T03:30:50.422Z,99230.17
2019-02-11T03:33:19.862Z,99232.27
2019-02-11T03:35:49.461Z,99230.45
2019-02-11T03:38:18.859Z,99241.35
2019-02-11T03:40:48.229Z,99250.64
2019-02-11T03:43:17.865Z,99256.75
2019-02-11T03:45:47.314Z,99263.80
2019-02-11T03:48:16.909Z,99266.11
2019-02-11T03:50:46.286Z,99271.30
2019-02-11T03:53:15.914Z,99272.06
2019-02-11T03:55:45.279Z,99276.39
2019-02-11T03:58:14.696Z,99280.44
2019-02-11T04:00:44.387Z,99283.72
2019-02-11T04:03:13.955Z,99287.25
2019-02-11T04:05:45.877Z,99287.92
2019-02-11T04:08:15.348Z,99304.77
2019-02-11T04:10:44.721Z,99307.14
2019-02-11T04:13:14.466Z,99308.05
2019-02-11T04:15:44.113Z,99316.82
2019-02-11T04:18:14.088Z,99324.30
2019-02-11T04:20:43.450Z,99334.94
2019-02-11T04:23:12.907Z,99330.76
2019-02-11T04:25:42.329Z,99333.98
2019-02-11T04:28:11.704Z,99339.06
2019-02-11T04:30:41.105Z,99341.07
2019-02-11T04:33:10.672Z,99340.67
2019-02-11T04:35:41.261Z,99357.69
2019-02-11T04:38:15.987Z,99367.53
2019-02-11T04:40:45.419Z,99376.38
2019-02-11T04:43:15.374Z,99364.27
2019-02-11T04:45:49.660Z,99385.20
2019-02-11T04:48:20.858Z,99389.72
2019-02-11T04:51:06.368Z,99389.45
2019-02-11T04:53:39.996Z,99389.73
2019-02-11T04:56:26.463Z,99381.30
2019-02-11T04:59:02.161Z,99384.09
2019-02-11T05:01:37.303Z,99391.53
2019-02-11T05:04:09.402Z,99396.25
2019-02-11T05:06:41.615Z,99405.84
2019-02-11T05:09:11.147Z,99407.27
2019-02-11T05:11:40.514Z,99412.66
2019-02-11T05:14:12.272Z,99414.47
2019-02-11T05:16:41.645Z,99423.77
2019-02-11T05:19:11.412Z,99417.07
2019-02-11T05:21:40.915Z,99433.09
2019-02-11T05:24:10.405Z,99435.77
2019-02-11T05:26:39.871Z,99443.00
2019-02-11T05:29:11.993Z,99451.23
2019-02-11T05:31:44.703Z,99456.75
2019-02-11T05:34:14.094Z,99464.46
2019-02-11T05:36:43.559Z,99464.03
2019-02-11T05:39:13.125Z,99465.17
2019-02-11T05:41:44.542Z,99462.09
2019-02-11T05:44:15.789Z,99467.80
2019-02-11T05:46:45.693Z,99474.38
2019-02-11T05:49:15.149Z,99473.50
2019-02-11T05:51:44.808Z,99478.09
2019-02-11T05:54:14.301Z,99487.78
2019-02-11T05:56:44.020Z,99489.34
2019-02-11T05:59:19.993Z,99503.08
2019-02-11T06:02:19.035Z,99510.75
2019-02-11T06:04:47.400Z,99506.80
2019-02-11T06:07:16.929Z,99513.96
2019-02-11T06:09:46.409Z,99518.38
2019-02-11T06:12:15.844Z,99515.66
2019-02-11T06:14:47.956Z,99513.64
2019-02-11T06:17:17.434Z,99518.67
2019-02-11T06:19:46.907Z,99521.20
2019-02-11T06:22:16.670Z,99523.89
2019-02-11T06:24:46.326Z,99540.78
2019-02-11T06:27:15.963Z,99539.67
2019-02-11T06:29:45.423Z,99548.66
2019-02-11T06:32:15.176Z,99548.99
2019-02-11T06:34:45.995Z,99556.33
2019-02-11T06:37:15.416Z,99566.73
2019-02-11T06:39:45.065Z,99577.98
2019-02-11T06:42:14.519Z,99583.92
2019-02-11T06:44:43.979Z,99592.64
2019-02-11T06:47:13.742Z,99596.94
2019-02-11T06:49:43.463Z,99601.11
2019-02-11T06:52:12.980Z,99611.42
2019-02-11T06:54:43.232Z,99624.66
2019-02-11T06:57:15.834Z,99625.14
2019-02-11T06:59:45.300Z,99632.94
2019-02-11T07:02:15.027Z,99629.50
2019-02-11T07:04:44.484Z,99638.86
2019-02-11T07:07:13.977Z,99645.63
2019-02-11T07:09:43.902Z,99653.08
2019-02-11T07:12:13.359Z,99665.00
2019-02-11T07:14:42.886Z,99676.77
2019-02-11T07:17:12.688Z,99680.59
2019-02-11T07:19:42.206Z,99683.41
2019-02-11T07:22:11.966Z,99698.75
2019-02-11T07:24:42.027Z,99694.81
2019-02-11T07:27:12.102Z,99702.86
2019-02-11T07:29:41.767Z,99710.22
2019-02-11T07:32:11.223Z,99716.53
2019-02-11T07:34:41.012Z,99715.66
2019-02-11T07:37:10.588Z,99716.25
2019-02-11T07:39:40.040Z,99728.70
2019-02-11T07:42:13.870Z,99730.44
2019-02-11T07:44:44.831Z,99738.22
2019-02-11T07:47:14.344Z,99733.81
2019-02-11T07:49:43.746Z,99739.09
2019-02-11T07:52:13.500Z,99743.35
2019-02-11T07:54:43.351Z,99745.28
2019-02-11T07:57:12.948Z,99749.05
2019-02-11T07:59:42.894Z,99752.95
2019-02-11T08:02:12.730Z,99753.04
2019-02-11T08:04:42.278Z,99764.86
2019-02-11T08:07:11.995Z,99768.84
2019-02-11T08:09:41.715Z,99776.94
2019-02-11T08:12:11.116Z,99780.34
2019-02-11T08:14:41.108Z,99783.95
2019-02-11T08:17:10.709Z,99790.26
2019-02-11T08:19:40.194Z,99798.57
2019-02-11T08:22:09.670Z,99793.64
2019-02-11T08:24:39.123Z,99797.63
2019-02-11T08:27:08.867Z,99802.50
2019-02-11T08:29:38.521Z,99801.86
2019-02-11T08:32:08.029Z,99801.11
2019-02-11T08:34:37.836Z,99814.67
2019-02-11T08:37:07.282Z,99819.38
2019-02-11T08:39:36.800Z,99832.85
2019-02-11T08:42:06.233Z,99845.53
2019-02-11T08:44:35.885Z,99850.64
2019-02-11T08:47:05.303Z,99860.95
2019-02-11T08:49:35.015Z,99853.38
2019-02-11T08:52:04.456Z,99852.22
2019-02-11T08:54:33.972Z,99862.17
2019-02-11T08:57:03.454Z,99860.58
2019-02-11T08:59:33.175Z,99863.25
2019-02-11T09:02:02.932Z,99873.19
2019-02-11T09:04:32.837Z,99868.55
2019-02-11T09:07:02.697Z,99866.02
2019-02-11T09:09:32.255Z,99867.30
2019-02-11T09:12:01.997Z,99874.26
2019-02-11T09:14:31.463Z,99869.70
2019-02-11T09:17:01.002Z,99877.56
2019-02-11T09:19:30.399Z,99886.05
2019-02-11T09:22:07.267Z,99892.75
2019-02-11T09:24:35.185Z,99898.47
2019-02-11T09:27:04.778Z,99895.17
2019-02-11T09:29:34.542Z,99904.66
2019-02-11T09:32:04.051Z,99911.34
2019-02-11T09:34:33.778Z,99913.53
2019-02-11T09:37:04.458Z,99916.11
2019-02-11T09:39:34.771Z,99917.40
2019-02-11T09:42:06.458Z,99922.56
2019-02-11T09:44:35.713Z,99930.09
2019-02-11T09:47:05.211Z,99933.20
2019-02-11T09:49:34.916Z,99939.78
2019-02-11T09:52:05.653Z,99940.83
2019-02-11T09:54:36.012Z,99943.89
2019-02-11T09:59:45.364Z,99961.98
2019-02-11T10:02:14.886Z,99962.81
2019-02-11T10:04:47.848Z,99976.39
2019-02-11T10:07:17.309Z,99977.67
2019-02-11T10:09:47.928Z,99984.10
2019-02-11T10:12:21.487Z,99988.86
2019-02-11T10:14:48.589Z,99999.92
2019-02-11T10:17:18.321Z,100002.22
2019-02-11T10:19:47.823Z,100014.20
2019-02-11T10:22:17.571Z,100010.73
2019-02-11T10:24:47.540Z,100012.12
2019-02-11T10:27:17.027Z,100010.73
2019-02-11T10:29:46.807Z,100022.09
2019-02-11T10:32:16.784Z,100022.84
2019-02-11T10:34:47.270Z,100028.14
2019-02-11T10:37:18.767Z,100040.55
2019-02-11T10:39:48.239Z,100043.06
2019-02-11T10:42:17.761Z,100044.67
2019-02-11T10:44:47.570Z,100048.93
2019-02-11T10:47:17.195Z,100057.87
2019-02-11T10:49:46.888Z,100069.19
2019-02-11T10:52:16.702Z,100071.14
2019-02-11T10:54:46.414Z,100072.75
2019-02-11T10:57:16.554Z,100075.20
2019-02-11T10:59:47.924Z,100077.16
2019-02-11T11:02:19.021Z,100082.93
2019-02-11T11:04:50.891Z,100083.27
2019-02-11T11:07:22.465Z,100090.16
2019-02-11T11:09:52.244Z,100084.22
2019-02-11T11:12:21.795Z,100085.77
2019-02-11T11:14:51.352Z,100086.80
2019-02-11T11:17:22.299Z,100086.16
2019-02-11T11:19:53.567Z,100098.22
2019-02-11T11:22:23.301Z,100105.44
2019-02-11T11:24:52.892Z,100111.09
2019-02-11T11:27:23.058Z,100122.85
2019-02-11T11:29:52.717Z,100113.91
2019-02-11T11:32:23.040Z,100118.85
2019-02-11T11:34:52.724Z,100122.41
2019-02-11T11:37:22.225Z,100123.69
2019-02-11T11:39:51.717Z,100127.24
2019-02-11T11:42:21.232Z,100124.18
2019-02-11T11:44:51.084Z,100136.44
2019-02-11T11:47:20.638Z,100128.74
2019-02-11T11:49:51.142Z,100119.78
2019-02-11T11:52:20.917Z,100117.52
2019-02-11T11:54:50.652Z,100118.51
2019-02-11T11:57:20.690Z,100126.44
2019-02-11T11:59:52.714Z,100139.29
2019-02-11T12:02:22.465Z,100154.39
2019-02-11T12:04:52.092Z,100154.44
2019-02-11T12:07:21.773Z,100145.02
2019-02-11T12:09:51.460Z,100164.80
2019-02-11T12:12:21.264Z,100169.30
2019-02-11T12:14:51.025Z,100177.71
2019-02-11T12:17:20.482Z,100191.50
2019-02-11T12:19:49.959Z,100187.13
2019-02-11T12:22:19.408Z,100189.88
2019-02-11T12:24:48.943Z,100199.59
2019-02-11T12:27:20.939Z,100205.73
2019-02-11T12:29:51.120Z,100211.70
2019-02-11T12:32:29.356Z,100207.69
2019-02-11T12:34:58.727Z,100210.22
2019-02-11T12:37:28.698Z,100215.50
2019-02-11T12:40:02.485Z,100215.22
2019-02-11T12:42:32.075Z,100225.35
2019-02-11T12:45:02.206Z,100236.64
2019-02-11T12:47:31.700Z,100240.29
2019-02-11T12:50:01.420Z,100244.97
2019-02-11T12:52:31.094Z,100254.88
2019-02-11T12:55:00.836Z,100258.77
2019-02-11T12:57:30.546Z,100265.50
2019-02-11T13:00:00.190Z,100263.11
2019-02-11T13:02:30.007Z,100260.54
2019-02-11T13:04:59.531Z,100266.09
2019-02-11T13:07:29.046Z,100271.47
2019-02-11T13:09:58.767Z,100265.98
2019-02-11T13:12:28.250Z,100271.89
2019-02-11T13:15:02.284Z,100281.09
2019-02-11T13:17:42.664Z,100281.50
2019-02-11T13:20:08.329Z,100278.92
2019-02-11T13:22:36.189Z,100284.11
2019-02-11T13:25:09.920Z,100284.91
2019-02-11T13:27:39.425Z,100286.48
2019-02-11T13:30:21.011Z,100290.25
2019-02-11T13:32:50.690Z,100295.41
2019-02-11T13:35:20.396Z,100289.30
2019-02-11T13:37:54.335Z,100291.40
2019-02-11T13:40:21.430Z,100297.69
2019-02-11T13:42:50.878Z,100314.42
2019-02-11T13:45:24.077Z,100316.13
2019-02-11T13:47:57.447Z,100325.27
2019-02-11T13:50:31.329Z,100336.25
2019-02-11T13:53:00.923Z,100341.44
2019-02-11T13:55:31.734Z,100351.02
2019-02-11T13:58:03.158Z,100353.17
2019-02-11T14:00:34.026Z,100360.29
2019-02-11T14:03:07.456Z,100370.41
2019-02-11T14:05:36.986Z,100377.00
2019-02-11T14:08:07.491Z,100386.29
2019-02-11T14:10:36.997Z,100393.47
2019-02-11T14:13:06.965Z,100403.81
2019-02-11T14:15:37.406Z,100419.47
2019-02-11T14:18:15.985Z,100419.57
2019-02-11T14:20:49.409Z,100425.00
2019-02-11T14:23:17.669Z,100429.38
2019-02-11T14:25:47.808Z,100432.69
2019-02-11T14:28:19.413Z,100438.86
2019-02-11T14:30:49.234Z,100451.42
2019-02-11T14:33:19.172Z,100452.35
2019-02-11T14:35:48.962Z,100451.84
2019-02-11T14:38:25.100Z,100445.38
2019-02-11T14:40:56.130Z,100442.41
2019-02-11T14:43:26.141Z,100440.79
2019-02-11T14:45:57.010Z,100451.44
2019-02-11T14:48:28.981Z,100467.63
2019-02-11T14:50:58.245Z,100474.27
2019-02-11T14:53:27.865Z,100476.54
2019-02-11T14:55:57.800Z,100474.88
2019-02-11T14:58:27.285Z,100474.28
2019-02-11T15:00:56.997Z,100475.42
2019-02-11T15:03:26.446Z,100476.18
2019-02-11T15:05:55.993Z,100477.27
2019-02-11T15:08:25.488Z,100474.06
2019-02-11T15:10:55.769Z,100474.06
2019-02-11T15:13:28.620Z,100452.27
2019-02-11T15:15:58.691Z,100445.48
2019-02-11T15:18:34.102Z,100457.16
2019-02-11T15:21:05.414Z,100464.34
2019-02-11T15:23:42.252Z,100474.73
2019-02-11T15:26:11.711Z,100487.08
2019-02-11T15:28:43.333Z,100488.95
2019-02-11T15:31:12.910Z,100493.15
2019-02-11T15:33:44.076Z,100502.19
2019-02-11T15:36:15.087Z,100504.63
2019-02-11T15:38:44.491Z,100509.45
2019-02-11T15:41:15.582Z,100514.58
2019-02-11T15:43:46.514Z,100515.40
2019-02-11T15:46:16.018Z,100528.50
2019-02-11T15:48:45.739Z,100525.73
2019-02-11T15:51:29.739Z,100542.47
2019-02-11T15:53:59.160Z,100551.97
2019-02-11T15:56:28.734Z,100552.31
2019-02-11T15:58:58.266Z,100568.59
2019-02-11T16:01:29.513Z,100571.45
2019-02-11T16:03:59.921Z,100568.66
2019-02-11T16:06:38.011Z,100572.45
2019-02-11T16:09:04.896Z,100572.45
2019-02-11T16:11:35.906Z,100589.61
2019-02-11T16:14:05.445Z,100598.17
2019-02-11T16:16:35.014Z,100601.42
2019-02-11T16:19:04.825Z,100619.48
2019-02-11T16:21:34.380Z,100621.47
2019-02-11T16:24:03.954Z,100630.16
2019-02-11T16:26:35.088Z,100635.59
2019-02-11T16:29:04.828Z,100646.45
2019-02-11T16:31:34.338Z,100653.50
2019-02-11T16:34:05.513Z,100656.95
2019-02-11T16:36:34.963Z,100662.94
2019-02-11T16:39:08.207Z,100658.45
2019-02-11T16:41:37.811Z,100664.41
2019-02-11T16:44:08.196Z,100672.49
2019-02-11T16:46:37.637Z,100684.16
2019-02-11T16:49:07.083Z,100693.81
2019-02-11T16:51:38.156Z,100707.66
2019-02-11T16:54:10.383Z,100714.33
2019-02-11T16:56:41.983Z,100725.16
2019-02-11T16:59:11.673Z,100741.11
2019-02-11T17:01:43.317Z,100744.63
2019-02-11T17:04:12.994Z,100752.14
2019-02-11T17:06:43.147Z,100758.25
2019-02-11T17:09:12.772Z,100764.00
2019-02-11T17:11:42.245Z,100764.36
2019-02-11T17:14:13.030Z,100772.74
2019-02-11T17:16:43.135Z,100774.17
2019-02-11T17:19:12.995Z,100781.61
2019-02-11T17:21:42.527Z,100793.28
2019-02-11T17:24:12.054Z,100810.34
2019-02-11T17:26:42.242Z,100816.59
2019-02-11T17:29:12.948Z,100817.53
2019-02-11T17:31:42.362Z,100823.39
2019-02-11T17:34:11.903Z,100835.48
2019-02-11T17:36:41.431Z,100843.83
2019-02-11T17:39:32.621Z,100841.94
2019-02-11T17:42:02.025Z,100842.00
2019-02-11T17:44:31.383Z,100845.66
2019-02-11T17:47:00.795Z,100833.45
2019-02-11T17:49:30.164Z,100843.11
2019-02-11T17:51:59.561Z,100848.39
2019-02-11T17:54:28.937Z,100853.89
2019-02-11T17:56:58.298Z,100867.30
2019-02-11T17:59:27.696Z,100871.95
2019-02-11T18:01:58.428Z,100882.78
2019-02-11T18:04:28.132Z,100879.49
2019-02-11T18:06:58.042Z,100882.55
2019-02-11T18:09:28.112Z,100889.95
2019-02-11T18:11:58.128Z,100896.75
2019-02-11T18:14:27.504Z,100899.78
2019-02-11T18:16:56.936Z,100899.13
2019-02-11T18:19:26.584Z,100898.51
2019-02-11T18:21:55.949Z,100895.42
2019-02-11T18:24:25.327Z,100892.69
2019-02-11T18:26:55.469Z,100888.81
2019-02-11T18:29:24.857Z,100890.19
2019-02-11T18:31:54.217Z,100899.29
2019-02-11T18:34:23.607Z,100911.55
2019-02-11T18:36:52.969Z,100920.30
2019-02-11T18:39:22.686Z,100926.56
2019-02-11T18:41:52.051Z,100924.72
2019-02-11T18:44:21.434Z,100928.88
2019-02-11T18:46:50.814Z,100931.44
2019-02-11T18:49:20.508Z,100937.51
2019-02-11T18:51:49.873Z,100938.34
2019-02-11T18:54:19.383Z,100931.61
2019-02-11T18:56:48.754Z,100938.64
2019-02-11T18:59:24.496Z,100948.33
2019-02-11T19:01:49.476Z,100969.55
2019-02-11T19:04:19.109Z,100982.60
2019-02-11T19:06:48.477Z,100990.06
2019-02-11T19:09:19.170Z,100994.37
2019-02-11T19:11:48.638Z,100992.57
2019-02-11T19:14:18.025Z,100989.71
2019-02-11T19:16:48.684Z,100973.63
2019-02-11T19:19:18.075Z,100954.88
2019-02-11T19:21:47.444Z,100938.34
2019-02-11T19:24:16.826Z,100939.31
2019-02-11T19:26:46.264Z,100940.38
2019-02-11T19:29:15.651Z,100945.86
2019-02-11T19:31:45.111Z,100943.96
2019-02-11T19:34:14.515Z,100939.75
2019-02-11T19:36:43.859Z,100930.88
2019-02-11T19:39:13.318Z,100948.20
2019-02-11T19:41:43.177Z,100969.42
2019-02-11T19:44:12.654Z,100987.58
2019-02-11T19:46:42.043Z,100991.84
2019-02-11T19:49:11.435Z,101002.23
2019-02-11T19:51:40.810Z,100993.13
2019-02-11T19:54:11.115Z,100996.23
2019-02-11T19:56:40.488Z,101002.11
2019-02-11T19:59:09.896Z,101010.36
2019-02-11T20:01:39.250Z,100997.69
2019-02-11T20:04:08.634Z,101006.97
2019-02-11T20:06:38.006Z,101019.98
2019-02-11T20:09:08.448Z,101016.31
2019-02-11T20:11:38.962Z,101027.55
2019-02-11T20:14:08.350Z,101033.06
2019-02-11T20:16:37.713Z,101044.13
2019-02-11T20:19:07.092Z,101048.52
2019-02-11T20:21:36.458Z,101053.34
2019-02-11T20:24:05.847Z,101057.03
2019-02-11T20:26:37.056Z,101058.71
2019-02-11T20:29:06.704Z,101064.32
2019-02-11T20:31:36.076Z,101068.92
2019-02-11T20:34:05.870Z,101070.45
2019-02-11T20:36:35.246Z,101077.73
2019-02-11T20:39:05.794Z,101079.36
2019-02-11T20:41:35.148Z,101081.86
2019-02-11T20:44:04.786Z,101091.14
2019-02-11T20:46:34.163Z,101093.02
2019-02-11T20:49:03.548Z,101094.37
2019-02-11T20:51:32.949Z,101096.95
2019-02-11T20:54:02.327Z,101108.34
2019-02-11T20:56:32.831Z,101100.34
2019-02-11T20:59:02.207Z,101106.26
2019-02-11T21:01:31.587Z,101108.77
2019-02-11T21:04:00.977Z,101111.22
2019-02-11T21:06:30.350Z,101113.98
2019-02-11T21:08:59.735Z,101119.17
2019-02-11T21:11:29.346Z,101122.94
2019-02-11T21:13:58.762Z,101122.73
2019-02-11T21:16:28.108Z,101129.38
2019-02-11T21:18:57.484Z,101134.92
2019-02-11T21:21:26.865Z,101138.78
2019-02-11T21:23:56.238Z,101139.67
2019-02-11T21:26:25.612Z,101141.41
2019-02-11T21:28:54.985Z,101142.95
2019-02-11T21:31:24.645Z,101157.86
2019-02-11T21:33:54.031Z,101160.41
2019-02-11T21:36:23.711Z,101163.71
2019-02-11T21:38:53.339Z,101168.67
2019-02-11T21:41:22.727Z,101175.27
2019-02-11T21:43:52.086Z,101182.02
2019-02-11T21:46:21.552Z,101192.31
2019-02-11T21:48:50.973Z,101190.91
2019-02-11T21:51:20.423Z,101194.36
2019-02-11T21:53:51.535Z,101182.55
2019-02-11T21:56:20.944Z,101179.10
2019-02-11T21:58:51.763Z,101180.67
2019-02-11T22:01:21.395Z,101174.74
2019-02-11T22:03:50.877Z,101179.86
2019-02-11T22:06:20.370Z,101179.08
2019-02-11T22:08:50.878Z,101181.30
2019-02-11T22:11:20.922Z,101181.88
2019-02-11T22:13:50.934Z,101189.97
2019-02-11T22:16:21.069Z,101191.31
2019-02-11T22:18:50.432Z,101189.75
2019-02-11T22:21:19.884Z,101200.03
2019-02-11T22:23:49.283Z,101192.50
2019-02-11T22:26:19.504Z,101194.33
2019-02-11T22:28:48.899Z,101207.44
2019-02-11T22:31:18.527Z,101206.93
2019-02-11T22:33:47.966Z,101207.40
2019-02-11T22:36:17.532Z,101219.56
2019-02-11T22:38:47.180Z,101216.08
2019-02-11T22:41:16.728Z,101225.42
2019-02-11T22:43:46.187Z,101227.17
2019-02-11T22:46:15.565Z,101236.33
2019-02-11T22:48:45.201Z,101238.39
2019-02-11T22:51:14.658Z,101234.43
2019-02-11T22:53:44.291Z,101233.73
2019-02-11T22:56:13.671Z,101226.08
2019-02-11T22:58:43.149Z,101223.09
2019-02-11T23:01:12.891Z,101222.94
2019-02-11T23:03:42.308Z,101216.03
2019-02-11T23:06:11.697Z,101222.16
2019-02-11T23:08:42.749Z,101220.77
2019-02-11T23:11:12.127Z,101229.70
2019-02-11T23:13:41.513Z,101228.20
2019-02-11T23:16:12.041Z,101229.78
2019-02-11T23:18:42.264Z,101228.16
2019-02-11T23:21:12.251Z,101222.82
2019-02-11T23:23:42.234Z,101230.81
2019-02-11T23:26:11.749Z,101238.13
2019-02-11T23:28:41.246Z,101252.91
2019-02-11T23:31:10.983Z,101254.11
2019-02-11T23:33:40.425Z,101263.91
2019-02-11T23:36:09.761Z,101264.91
2019-02-11T23:38:39.154Z,101263.77
2019-02-11T23:41:08.557Z,101257.86
2019-02-11T23:43:38.278Z,101261.25
2019-02-11T23:46:07.694Z,101265.23
2019-02-11T23:48:37.098Z,101268.67
2019-02-11T23:51:06.785Z,101280.22
2019-02-11T23:53:36.412Z,101284.20
2019-02-11T23:56:05.858Z,101286.39
2019-02-11T23:58:35.273Z,101284.69
